Weather at SARB South Island Heliport

Public forecast

Using degrees Celsius for public forecast. Weather courtesy of forecast.io.

Closest aviation weather report (METAR) to SARB South Island Heliport

Closest report is Al Bateen Executive Airport, 71.3 nm (132.0 km) ESE.

2024/06/24 21:00 (retrieved 2 hours ago)

OMAD 242100Z VRB01KT CAVOK 34/27 Q0997 NOSIG

Closest aviation forecast (TAF) to SARB South Island Heliport

Closest forecast is Al Bateen Executive Airport, 71.3 nm (132.0 km) ESE.

2024/06/24 18:00 (retrieved 5 hours ago)

TAF OMAD 241700Z 2418/2600 36007KT 8000 NSC BECMG 2421/2423 11004KT PROB30 2500/2504 3000 HZ BECMG 2508/2510 31013KT BECMG 2518/2520 21004KT